sensor_id;sensor_type;location;lat;lon;timestamp;P1;durP1;ratioP1;P2;durP2;ratioP2
48026;SDS011;50714;49.208;5.364;2022-12-07T00:04:56;8.65;;;6.60;;
48026;SDS011;50714;49.208;5.364;2022-12-07T00:14:56;9.48;;;7.78;;
48026;SDS011;50714;49.208;5.364;2022-12-07T00:24:56;8.88;;;7.05;;
48026;SDS011;50714;49.208;5.364;2022-12-07T00:34:57;10.82;;;9.10;;
48026;SDS011;50714;49.208;5.364;2022-12-07T00:44:57;9.13;;;7.50;;
48026;SDS011;50714;49.208;5.364;2022-12-07T00:54:57;10.05;;;8.25;;
48026;SDS011;50714;49.208;5.364;2022-12-07T01:04:58;10.27;;;7.90;;
48026;SDS011;50714;49.208;5.364;2022-12-07T01:14:58;9.77;;;8.00;;
48026;SDS011;50714;49.208;5.364;2022-12-07T01:24:58;9.07;;;7.63;;
48026;SDS011;50714;49.208;5.364;2022-12-07T01:34:59;9.77;;;7.47;;
48026;SDS011;50714;49.208;5.364;2022-12-07T01:55:18;8.85;;;7.70;;
48026;SDS011;50714;49.208;5.364;2022-12-07T02:05:20;9.00;;;7.18;;
48026;SDS011;50714;49.208;5.364;2022-12-07T02:15:24;8.95;;;7.22;;
48026;SDS011;50714;49.208;5.364;2022-12-07T02:35:40;9.80;;;8.15;;
48026;SDS011;50714;49.208;5.364;2022-12-07T02:46:15;8.05;;;6.40;;
48026;SDS011;50714;49.208;5.364;2022-12-07T02:56:27;9.30;;;8.13;;
48026;SDS011;50714;49.208;5.364;2022-12-07T03:06:42;6.75;;;5.95;;
48026;SDS011;50714;49.208;5.364;2022-12-07T03:16:56;6.97;;;5.60;;
48026;SDS011;50714;49.208;5.364;2022-12-07T03:27:03;7.25;;;6.05;;
48026;SDS011;50714;49.208;5.364;2022-12-07T03:37:15;7.35;;;6.55;;
48026;SDS011;50714;49.208;5.364;2022-12-07T03:57:33;8.50;;;7.28;;
48026;SDS011;50714;49.208;5.364;2022-12-07T04:07:35;8.13;;;7.28;;
48026;SDS011;50714;49.208;5.364;2022-12-07T04:17:35;9.50;;;8.45;;
48026;SDS011;50714;49.208;5.364;2022-12-07T04:27:36;11.65;;;9.07;;
48026;SDS011;50714;49.208;5.364;2022-12-07T04:37:36;12.80;;;10.52;;
48026;SDS011;50714;49.208;5.364;2022-12-07T04:47:39;11.63;;;9.48;;
48026;SDS011;50714;49.208;5.364;2022-12-07T04:57:39;12.07;;;10.23;;
48026;SDS011;50714;49.208;5.364;2022-12-07T05:07:39;14.40;;;11.18;;
48026;SDS011;50714;49.208;5.364;2022-12-07T05:17:40;14.43;;;12.27;;
48026;SDS011;50714;49.208;5.364;2022-12-07T05:27:40;23.38;;;19.15;;
48026;SDS011;50714;49.208;5.364;2022-12-07T05:37:41;15.80;;;13.60;;
48026;SDS011;50714;49.208;5.364;2022-12-07T05:47:41;16.10;;;13.18;;
48026;SDS011;50714;49.208;5.364;2022-12-07T05:57:42;16.95;;;13.60;;
48026;SDS011;50714;49.208;5.364;2022-12-07T06:08:02;17.58;;;15.20;;
48026;SDS011;50714;49.208;5.364;2022-12-07T06:18:02;19.58;;;16.10;;
48026;SDS011;50714;49.208;5.364;2022-12-07T06:28:03;16.63;;;13.93;;
48026;SDS011;50714;49.208;5.364;2022-12-07T06:38:03;12.35;;;9.60;;
48026;SDS011;50714;49.208;5.364;2022-12-07T06:48:04;13.02;;;10.25;;
48026;SDS011;50714;49.208;5.364;2022-12-07T06:58:04;12.75;;;10.05;;
48026;SDS011;50714;49.208;5.364;2022-12-07T07:08:05;12.05;;;9.80;;
48026;SDS011;50714;49.208;5.364;2022-12-07T07:18:05;12.63;;;9.70;;
48026;SDS011;50714;49.208;5.364;2022-12-07T07:28:05;13.10;;;11.15;;
48026;SDS011;50714;49.208;5.364;2022-12-07T07:38:06;13.68;;;10.07;;
48026;SDS011;50714;49.208;5.364;2022-12-07T07:48:07;13.93;;;11.25;;
48026;SDS011;50714;49.208;5.364;2022-12-07T07:58:07;15.77;;;11.30;;
48026;SDS011;50714;49.208;5.364;2022-12-07T08:08:08;13.57;;;10.85;;
48026;SDS011;50714;49.208;5.364;2022-12-07T08:18:08;14.50;;;11.05;;
48026;SDS011;50714;49.208;5.364;2022-12-07T08:28:09;15.80;;;11.75;;
48026;SDS011;50714;49.208;5.364;2022-12-07T08:38:09;16.00;;;11.75;;
48026;SDS011;50714;49.208;5.364;2022-12-07T08:48:10;13.73;;;10.88;;
48026;SDS011;50714;49.208;5.364;2022-12-07T08:58:13;14.63;;;10.50;;
48026;SDS011;50714;49.208;5.364;2022-12-07T09:08:13;13.65;;;11.25;;
48026;SDS011;50714;49.208;5.364;2022-12-07T09:18:14;17.88;;;15.95;;
48026;SDS011;50714;49.208;5.364;2022-12-07T09:28:15;13.50;;;11.00;;
48026;SDS011;50714;49.208;5.364;2022-12-07T09:38:15;13.93;;;11.20;;
48026;SDS011;50714;49.208;5.364;2022-12-07T09:48:18;13.32;;;10.52;;
48026;SDS011;50714;49.208;5.364;2022-12-07T09:58:33;11.27;;;8.52;;
48026;SDS011;50714;49.208;5.364;2022-12-07T10:08:33;11.30;;;9.13;;
48026;SDS011;50714;49.208;5.364;2022-12-07T10:18:35;10.45;;;7.75;;
48026;SDS011;50714;49.208;5.364;2022-12-07T10:28:43;9.45;;;7.22;;
48026;SDS011;50714;49.208;5.364;2022-12-07T10:38:45;8.90;;;6.82;;
48026;SDS011;50714;49.208;5.364;2022-12-07T11:19:20;8.60;;;7.10;;
48026;SDS011;50714;49.208;5.364;2022-12-07T11:29:28;7.90;;;6.23;;
48026;SDS011;50714;49.208;5.364;2022-12-07T11:39:54;10.35;;;7.07;;
48026;SDS011;50714;49.208;5.364;2022-12-07T11:50:09;9.20;;;6.85;;
48026;SDS011;50714;49.208;5.364;2022-12-07T12:00:30;9.90;;;7.22;;
48026;SDS011;50714;49.208;5.364;2022-12-07T12:20:43;7.43;;;5.55;;
48026;SDS011;50714;49.208;5.364;2022-12-07T12:31:03;6.32;;;5.07;;
48026;SDS011;50714;49.208;5.364;2022-12-07T12:41:52;8.48;;;6.03;;
48026;SDS011;50714;49.208;5.364;2022-12-07T13:02:23;6.55;;;4.75;;
48026;SDS011;50714;49.208;5.364;2022-12-07T13:12:27;7.03;;;4.95;;
48026;SDS011;50714;49.208;5.364;2022-12-07T13:32:31;7.97;;;5.55;;
48026;SDS011;50714;49.208;5.364;2022-12-07T13:42:32;7.00;;;5.35;;
48026;SDS011;50714;49.208;5.364;2022-12-07T13:52:35;8.88;;;6.50;;
48026;SDS011;50714;49.208;5.364;2022-12-07T14:13:23;15.65;;;11.88;;
48026;SDS011;50714;49.208;5.364;2022-12-07T14:23:39;9.00;;;6.60;;
48026;SDS011;50714;49.208;5.364;2022-12-07T14:33:40;7.75;;;5.22;;
48026;SDS011;50714;49.208;5.364;2022-12-07T14:43:41;7.25;;;4.97;;
48026;SDS011;50714;49.208;5.364;2022-12-07T14:53:46;6.72;;;4.82;;
48026;SDS011;50714;49.208;5.364;2022-12-07T15:03:49;8.33;;;5.33;;
48026;SDS011;50714;49.208;5.364;2022-12-07T15:13:49;48.78;;;44.97;;
48026;SDS011;50714;49.208;5.364;2022-12-07T15:24:08;10.40;;;9.27;;
48026;SDS011;50714;49.208;5.364;2022-12-07T15:34:10;10.80;;;9.68;;
48026;SDS011;50714;49.208;5.364;2022-12-07T15:44:13;10.00;;;7.45;;
48026;SDS011;50714;49.208;5.364;2022-12-07T15:54:33;9.55;;;7.35;;
48026;SDS011;50714;49.208;5.364;2022-12-07T16:04:33;9.70;;;7.70;;
48026;SDS011;50714;49.208;5.364;2022-12-07T16:14:33;8.65;;;6.93;;
48026;SDS011;50714;49.208;5.364;2022-12-07T16:24:34;9.43;;;7.43;;
48026;SDS011;50714;49.208;5.364;2022-12-07T16:34:34;7.95;;;6.07;;
48026;SDS011;50714;49.208;5.364;2022-12-07T16:44:35;8.43;;;6.78;;
48026;SDS011;50714;49.208;5.364;2022-12-07T16:54:35;10.50;;;8.43;;
48026;SDS011;50714;49.208;5.364;2022-12-07T17:04:36;29.58;;;20.05;;
48026;SDS011;50714;49.208;5.364;2022-12-07T17:14:39;41.28;;;24.95;;
48026;SDS011;50714;49.208;5.364;2022-12-07T17:24:58;67.57;;;39.38;;
48026;SDS011;50714;49.208;5.364;2022-12-07T17:34:58;42.28;;;25.83;;
48026;SDS011;50714;49.208;5.364;2022-12-07T17:44:59;16.77;;;12.45;;
48026;SDS011;50714;49.208;5.364;2022-12-07T17:55:00;12.05;;;8.63;;
48026;SDS011;50714;49.208;5.364;2022-12-07T18:05:00;13.02;;;9.70;;
48026;SDS011;50714;49.208;5.364;2022-12-07T18:15:01;12.55;;;9.25;;
48026;SDS011;50714;49.208;5.364;2022-12-07T18:25:01;11.73;;;8.77;;
48026;SDS011;50714;49.208;5.364;2022-12-07T18:35:01;12.45;;;9.50;;
48026;SDS011;50714;49.208;5.364;2022-12-07T18:45:02;12.88;;;9.65;;
48026;SDS011;50714;49.208;5.364;2022-12-07T18:55:03;12.88;;;10.02;;
48026;SDS011;50714;49.208;5.364;2022-12-07T19:05:03;14.55;;;10.70;;
48026;SDS011;50714;49.208;5.364;2022-12-07T19:15:04;17.73;;;13.43;;
48026;SDS011;50714;49.208;5.364;2022-12-07T19:25:06;17.60;;;13.35;;
48026;SDS011;50714;49.208;5.364;2022-12-07T19:35:07;16.83;;;12.50;;
48026;SDS011;50714;49.208;5.364;2022-12-07T19:45:08;16.13;;;12.40;;
48026;SDS011;50714;49.208;5.364;2022-12-07T19:55:08;17.97;;;13.67;;
48026;SDS011;50714;49.208;5.364;2022-12-07T20:05:08;21.58;;;15.73;;
48026;SDS011;50714;49.208;5.364;2022-12-07T20:15:09;21.23;;;17.38;;
48026;SDS011;50714;49.208;5.364;2022-12-07T20:25:09;21.13;;;15.70;;
48026;SDS011;50714;49.208;5.364;2022-12-07T20:35:09;19.02;;;15.43;;
48026;SDS011;50714;49.208;5.364;2022-12-07T20:45:10;19.55;;;15.43;;
48026;SDS011;50714;49.208;5.364;2022-12-07T20:55:11;39.90;;;27.92;;
48026;SDS011;50714;49.208;5.364;2022-12-07T21:05:11;51.43;;;33.80;;
48026;SDS011;50714;49.208;5.364;2022-12-07T21:15:12;38.13;;;25.23;;
48026;SDS011;50714;49.208;5.364;2022-12-07T21:25:13;23.13;;;18.27;;
48026;SDS011;50714;49.208;5.364;2022-12-07T21:35:13;17.80;;;14.20;;
48026;SDS011;50714;49.208;5.364;2022-12-07T21:45:14;16.38;;;13.73;;
48026;SDS011;50714;49.208;5.364;2022-12-07T21:55:14;18.58;;;14.52;;
48026;SDS011;50714;49.208;5.364;2022-12-07T22:05:15;17.27;;;14.27;;
48026;SDS011;50714;49.208;5.364;2022-12-07T22:15:15;14.85;;;11.45;;
48026;SDS011;50714;49.208;5.364;2022-12-07T22:25:15;18.05;;;13.57;;
48026;SDS011;50714;49.208;5.364;2022-12-07T22:35:16;17.33;;;12.93;;
48026;SDS011;50714;49.208;5.364;2022-12-07T22:45:17;15.18;;;10.93;;
48026;SDS011;50714;49.208;5.364;2022-12-07T22:55:17;16.90;;;13.23;;
48026;SDS011;50714;49.208;5.364;2022-12-07T23:05:17;16.40;;;12.50;;
48026;SDS011;50714;49.208;5.364;2022-12-07T23:15:18;15.70;;;11.15;;
48026;SDS011;50714;49.208;5.364;2022-12-07T23:25:18;15.32;;;12.15;;
48026;SDS011;50714;49.208;5.364;2022-12-07T23:35:19;15.70;;;12.15;;
48026;SDS011;50714;49.208;5.364;2022-12-07T23:45:19;15.32;;;10.90;;
48026;SDS011;50714;49.208;5.364;2022-12-07T23:55:19;15.15;;;11.02;;
